Time;durP1;ratioP1;P1;durP2;ratioP2;P2;SDS_P1;SDS_P2;PMS_P1;PMS_P2;Temp;Humidity;BMP_temperature;BMP_pressure;BME280_temperature;BME280_humidity;BME280_pressure;Samples;Min_cycle;Max_cycle;Signal;HPM_P1;HPM_P2
2023/04/20 00:00:18;;;;;;;0.63;0.10;;;;;;;4.41;48.55;103433.06;5107642;28;20040;-69
2023/04/20 00:02:45;;;;;;;0.20;0.10;;;;;;;4.37;48.43;103439.78;5110024;28;20061;-69
2023/04/20 00:05:13;;;;;;;0.68;0.10;;;;;;;4.32;49.06;103436.06;5104378;28;20054;-69
2023/04/20 00:07:40;;;;;;;3.30;0.65;;;;;;;4.28;48.57;103440.22;5107062;28;20051;-69
2023/04/20 00:10:09;;;;;;;0.10;0.10;;;;;;;4.24;48.69;103432.22;5108701;28;20124;-68
2023/04/20 00:12:36;;;;;;;0.65;0.20;;;;;;;4.21;48.80;103434.66;5106020;28;20043;-69
2023/04/20 00:15:03;;;;;;;1.40;0.20;;;;;;;4.18;49.14;103434.50;5110156;28;20048;-69
2023/04/20 00:17:30;;;;;;;4.03;0.13;;;;;;;4.13;49.21;103430.81;5107729;28;20097;-69
2023/04/20 00:19:57;;;;;;;0.60;0.20;;;;;;;4.09;49.22;103434.03;5105772;28;20085;-69
2023/04/20 00:22:27;;;;;;;0.30;0.20;;;;;;;4.05;49.31;103435.59;5106452;28;20051;-68
2023/04/20 00:24:54;;;;;;;0.17;0.15;;;;;;;4.02;49.71;103430.25;5111013;28;20496;-69
2023/04/20 00:27:21;;;;;;;1.58;0.20;;;;;;;3.98;49.48;103430.91;5104556;28;20469;-69
2023/04/20 00:29:48;;;;;;;0.52;0.20;;;;;;;3.97;49.59;103426.53;5108907;28;20051;-69
2023/04/20 00:32:14;;;;;;;2.28;0.10;;;;;;;3.91;49.81;103419.34;5107084;27;20055;-69
2023/04/20 00:34:41;;;;;;;0.10;0.10;;;;;;;3.90;49.65;103421.84;5108750;27;20047;-69
2023/04/20 00:37:08;;;;;;;0.20;0.15;;;;;;;3.88;49.71;103428.66;5106004;27;20058;-69
2023/04/20 00:39:36;;;;;;;0.82;0.17;;;;;;;3.85;49.80;103423.34;5110881;27;20051;-69
2023/04/20 00:42:05;;;;;;;1.85;0.10;;;;;;;3.80;50.16;103413.63;5113590;27;20128;-69
2023/04/20 00:44:32;;;;;;;0.10;0.10;;;;;;;3.79;49.59;103411.88;5109496;28;20051;-69
2023/04/20 00:46:59;;;;;;;1.52;0.17;;;;;;;3.75;49.79;103415.09;5109815;27;20047;-69
2023/04/20 00:49:29;;;;;;;0.20;0.10;;;;;;;3.74;49.84;103412.44;5112642;27;20040;-69
2023/04/20 00:51:57;;;;;;;0.43;0.10;;;;;;;3.69;50.16;103414.75;5110741;27;20047;-69
2023/04/20 00:54:25;;;;;;;0.40;0.20;;;;;;;3.68;50.55;103412.13;5113197;27;20043;-69
2023/04/20 00:56:54;;;;;;;0.55;0.20;;;;;;;3.65;50.13;103411.97;5109685;28;20048;-68
2023/04/20 00:59:22;;;;;;;0.15;0.10;;;;;;;3.59;50.20;103408.25;5111359;27;20054;-69
2023/04/20 01:01:48;;;;;;;0.20;0.10;;;;;;;3.57;50.55;103416.72;5109598;27;20693;-69
2023/04/20 01:04:16;;;;;;;1.75;0.10;;;;;;;3.55;50.08;103405.41;5107427;27;20043;-69
2023/04/20 01:06:43;;;;;;;0.38;0.20;;;;;;;3.52;50.56;103415.59;5108141;27;20052;-68
2023/04/20 01:09:11;;;;;;;0.65;0.10;;;;;;;3.47;50.81;103415.34;5106403;28;20598;-68
2023/04/20 01:11:38;;;;;;;0.13;0.10;;;;;;;3.45;50.71;103413.50;5107896;27;20483;-69
2023/04/20 01:14:06;;;;;;;0.32;0.10;;;;;;;3.41;51.12;103411.53;5105462;28;20086;-69
2023/04/20 01:16:35;;;;;;;2.05;0.15;;;;;;;3.37;50.40;103415.66;5107761;27;20047;-69
2023/04/20 01:19:02;;;;;;;0.10;0.10;;;;;;;3.33;50.82;103411.13;5110141;27;20049;-69
2023/04/20 01:21:30;;;;;;;1.17;0.17;;;;;;;3.30;50.69;103406.72;5110098;27;20058;-69
2023/04/20 01:23:58;;;;;;;0.25;0.10;;;;;;;3.26;51.10;103409.03;5108349;27;20136;-69
2023/04/20 01:26:25;;;;;;;5.32;0.30;;;;;;;3.23;51.52;103409.75;5107911;28;20415;-70
2023/04/20 01:28:52;;;;;;;3.63;0.20;;;;;;;3.22;50.80;103404.53;5108847;27;20047;-69
2023/04/20 01:31:19;;;;;;;0.20;0.10;;;;;;;3.19;51.47;103410.41;5114348;27;20063;-69
2023/04/20 01:33:46;;;;;;;2.67;0.20;;;;;;;3.18;50.97;103407.72;5110789;27;20040;-69
2023/04/20 01:36:13;;;;;;;0.10;0.10;;;;;;;3.15;51.24;103404.16;5111442;27;20036;-69
2023/04/20 01:38:40;;;;;;;0.35;0.20;;;;;;;3.12;51.43;103403.13;5110913;27;20044;-69
2023/04/20 01:41:09;;;;;;;0.50;0.17;;;;;;;3.11;51.43;103403.94;5102109;27;20137;-69
2023/04/20 01:43:37;;;;;;;0.20;0.10;;;;;;;3.10;51.73;103409.88;5109427;27;20047;-69
2023/04/20 01:46:05;;;;;;;0.20;0.10;;;;;;;3.08;51.57;103401.19;5106769;28;20052;-69
2023/04/20 01:48:32;;;;;;;0.25;0.10;;;;;;;3.05;52.16;103396.75;5107321;27;20054;-69
2023/04/20 01:50:59;;;;;;;0.65;0.10;;;;;;;3.02;52.27;103398.28;5110847;27;20043;-69
2023/04/20 01:53:26;;;;;;;0.98;0.10;;;;;;;2.95;52.11;103386.69;5108691;27;20040;-69
2023/04/20 01:55:53;;;;;;;0.17;0.13;;;;;;;2.97;52.44;103394.53;5108765;27;20044;-69
2023/04/20 01:58:21;;;;;;;0.22;0.20;;;;;;;2.93;52.38;103396.97;5109019;27;20036;-70
2023/04/20 02:00:48;;;;;;;0.20;0.10;;;;;;;2.91;51.76;103393.41;5107882;27;20046;-69
2023/04/20 02:03:15;;;;;;;0.20;0.20;;;;;;;2.88;51.74;103384.59;5109200;27;20051;-69
2023/04/20 02:05:42;;;;;;;0.77;0.20;;;;;;;2.85;52.32;103381.84;5108446;28;20051;-69
2023/04/20 02:08:09;;;;;;;1.95;0.20;;;;;;;2.84;52.70;103386.09;5108510;27;20047;-69
2023/04/20 02:10:36;;;;;;;0.20;0.13;;;;;;;2.82;52.04;103381.69;5105760;27;20039;-69
2023/04/20 02:13:03;;;;;;;1.02;0.17;;;;;;;2.79;52.61;103385.00;5106695;27;20044;-69
2023/04/20 02:15:31;;;;;;;0.10;0.10;;;;;;;2.77;52.89;103381.41;5106409;28;20055;-68
2023/04/20 02:17:58;;;;;;;0.28;0.10;;;;;;;2.76;52.67;103389.06;5106083;28;20052;-69
2023/04/20 02:20:25;;;;;;;0.25;0.10;;;;;;;2.72;52.85;103382.84;5105850;27;20048;-69
2023/04/20 02:22:52;;;;;;;1.15;0.10;;;;;;;2.69;52.56;103373.25;5105085;27;20047;-69
2023/04/20 02:25:19;;;;;;;0.25;0.10;;;;;;;2.68;52.63;103378.34;5108456;27;20059;-69
2023/04/20 02:27:45;;;;;;;0.52;0.13;;;;;;;2.65;53.26;103379.06;5110796;27;20044;-68
2023/04/20 02:30:13;;;;;;;0.20;0.10;;;;;;;2.63;52.57;103379.75;5104369;27;20048;-68
2023/04/20 02:32:42;;;;;;;0.38;0.20;;;;;;;2.61;53.11;103377.09;5106034;27;20157;-68
2023/04/20 02:35:09;;;;;;;0.40;0.20;;;;;;;2.59;53.29;103380.38;5107616;28;20078;-68
2023/04/20 02:37:36;;;;;;;0.40;0.20;;;;;;;2.57;53.13;103380.31;5106469;27;20419;-70
2023/04/20 02:40:04;;;;;;;1.10;0.28;;;;;;;2.54;53.02;103379.25;5104361;27;20499;-70
2023/04/20 02:42:31;;;;;;;0.10;0.10;;;;;;;2.52;53.00;103378.28;5099123;28;20457;-70
2023/04/20 02:44:58;;;;;;;0.13;0.10;;;;;;;2.47;53.96;103372.84;5106661;27;20039;-71
2023/04/20 02:47:25;;;;;;;1.23;0.10;;;;;;;2.45;52.97;103372.78;5104510;27;20048;-71
2023/04/20 02:49:53;;;;;;;0.45;0.20;;;;;;;2.42;53.83;103376.84;5105858;27;20043;-71
2023/04/20 02:52:20;;;;;;;0.65;0.20;;;;;;;2.40;53.81;103375.91;5111120;27;20051;-71
2023/04/20 02:54:47;;;;;;;0.20;0.10;;;;;;;2.37;53.68;103376.59;5108944;28;20046;-71
2023/04/20 02:57:14;;;;;;;0.20;0.10;;;;;;;2.36;54.28;103380.00;5108368;27;20621;-70
2023/04/20 02:59:42;;;;;;;0.25;0.20;;;;;;;2.32;53.42;103375.44;5108018;27;20047;-71
2023/04/20 03:02:09;;;;;;;1.63;0.20;;;;;;;2.24;53.68;103368.97;5110597;27;20044;-71
2023/04/20 03:04:36;;;;;;;1.63;0.10;;;;;;;2.29;53.96;103367.53;5105332;27;20418;-71
2023/04/20 03:07:05;;;;;;;0.20;0.10;;;;;;;2.27;53.74;103369.13;5107666;28;20741;-71
2023/04/20 03:09:31;;;;;;;0.10;0.10;;;;;;;2.24;53.97;103369.84;5109737;27;20049;-71
2023/04/20 03:11:58;;;;;;;2.92;0.20;;;;;;;2.21;54.22;103372.25;5106342;28;20407;-71
2023/04/20 03:14:25;;;;;;;0.25;0.10;;;;;;;2.20;54.21;103373.06;5106054;28;20431;-71
2023/04/20 03:16:52;;;;;;;3.10;0.10;;;;;;;2.18;54.49;103372.06;5105765;27;20120;-71
2023/04/20 03:19:19;;;;;;;0.63;0.20;;;;;;;2.15;55.08;103371.91;5106510;28;20039;-71
2023/04/20 03:21:46;;;;;;;0.20;0.10;;;;;;;2.14;54.79;103371.81;5109767;28;20053;-71
2023/04/20 03:24:15;;;;;;;0.28;0.20;;;;;;;2.13;54.82;103367.44;5107719;27;20048;-70
2023/04/20 03:26:42;;;;;;;0.40;0.20;;;;;;;2.10;55.49;103369.84;5105370;27;20516;-71
2023/04/20 03:29:09;;;;;;;0.60;0.20;;;;;;;2.08;55.54;103361.13;5108599;27;20846;-71
2023/04/20 03:31:36;;;;;;;2.33;0.20;;;;;;;2.07;55.16;103367.09;5108643;28;20526;-71
2023/04/20 03:34:03;;;;;;;1.45;0.40;;;;;;;2.06;55.59;103367.91;5108247;28;20089;-71
2023/04/20 03:36:30;;;;;;;1.95;0.13;;;;;;;2.05;55.19;103369.59;5107222;28;20146;-71
2023/04/20 03:38:57;;;;;;;0.90;0.20;;;;;;;2.03;54.50;103374.66;5103873;28;20396;-71
2023/04/20 03:41:25;;;;;;;0.13;0.10;;;;;;;2.01;55.56;103368.53;5105864;28;20405;-71
2023/04/20 03:43:53;;;;;;;1.27;0.20;;;;;;;2.00;55.21;103373.59;5105837;28;20052;-71
2023/04/20 03:46:20;;;;;;;0.20;0.10;;;;;;;1.97;55.37;103376.88;5102777;28;20032;-71
2023/04/20 03:48:47;;;;;;;0.20;0.20;;;;;;;1.98;55.11;103376.06;5108425;28;20385;-71
2023/04/20 03:51:13;;;;;;;0.30;0.10;;;;;;;1.97;55.34;103371.72;5106942;28;20481;-71
2023/04/20 03:53:40;;;;;;;0.80;0.20;;;;;;;1.96;55.40;103369.03;5107526;28;20055;-71
2023/04/20 03:56:08;;;;;;;1.90;0.30;;;;;;;1.95;55.77;103368.16;5110528;28;20059;-71
2023/04/20 03:58:36;;;;;;;0.68;0.20;;;;;;;1.95;55.99;103365.59;5110201;28;20044;-71
2023/04/20 04:01:05;;;;;;;0.40;0.20;;;;;;;1.94;55.30;103363.81;5110367;28;20410;-71
2023/04/20 04:03:33;;;;;;;0.60;0.20;;;;;;;1.93;55.68;103374.91;5110576;28;20547;-71
2023/04/20 04:06:00;;;;;;;0.77;0.20;;;;;;;1.87;55.82;103356.50;5110403;27;20039;-71
2023/04/20 04:08:27;;;;;;;2.10;0.20;;;;;;;1.92;55.65;103374.84;5112717;27;20066;-70
2023/04/20 04:10:54;;;;;;;1.17;0.20;;;;;;;1.91;55.55;103375.66;5109157;28;20427;-70
2023/04/20 04:13:20;;;;;;;0.30;0.20;;;;;;;1.93;56.69;103371.44;5111300;28;20043;-71
2023/04/20 04:15:49;;;;;;;2.08;0.20;;;;;;;1.93;56.68;103372.34;5112233;27;20067;-71
2023/04/20 04:18:16;;;;;;;0.10;0.10;;;;;;;1.94;56.14;103368.09;5109837;28;20120;-70
2023/04/20 04:20:42;;;;;;;0.50;0.17;;;;;;;1.94;56.06;103374.13;5109944;27;20131;-71
2023/04/20 04:23:09;;;;;;;1.45;0.10;;;;;;;1.95;56.47;103369.84;5109302;28;20506;-70
2023/04/20 04:25:38;;;;;;;0.20;0.20;;;;;;;1.95;56.97;103370.75;5107023;27;20047;-72
2023/04/20 04:28:05;;;;;;;0.55;0.20;;;;;;;1.97;56.78;103370.84;5113039;27;20047;-71
2023/04/20 04:30:32;;;;;;;0.35;0.20;;;;;;;2.00;56.76;103369.31;5106052;27;20047;-70
2023/04/20 04:33:03;;;;;;;0.28;0.17;;;;;;;2.02;57.01;103374.56;5112467;27;20051;-71
2023/04/20 04:35:30;;;;;;;0.50;0.20;;;;;;;2.04;56.60;103380.69;5113178;27;20133;-70
2023/04/20 04:37:57;;;;;;;1.00;0.30;;;;;;;2.05;57.38;103373.84;5111475;27;20826;-70
2023/04/20 04:40:24;;;;;;;0.57;0.30;;;;;;;2.08;57.49;103376.59;5106543;27;20047;-71
2023/04/20 04:42:51;;;;;;;0.40;0.22;;;;;;;2.10;57.99;103375.00;5110802;27;20044;-71
2023/04/20 04:45:18;;;;;;;0.93;0.17;;;;;;;2.15;57.59;103374.47;5107724;27;20058;-71
2023/04/20 04:47:45;;;;;;;1.20;0.20;;;;;;;2.20;57.93;103379.91;5102557;27;20047;-72
2023/04/20 04:50:13;;;;;;;0.20;0.20;;;;;;;2.25;58.25;103369.06;5111773;27;20047;-70
2023/04/20 04:52:40;;;;;;;2.13;0.20;;;;;;;2.32;57.69;103366.81;5107750;28;20052;-72
2023/04/20 04:55:08;;;;;;;6.22;0.43;;;;;;;2.37;58.06;103376.59;5111791;27;20047;-70
2023/04/20 04:57:37;;;;;;;0.30;0.20;;;;;;;2.46;58.09;103377.13;5108979;27;20044;-70
2023/04/20 05:00:08;;;;;;;0.40;0.20;;;;;;;2.53;58.65;103380.91;5109673;28;20092;-70
2023/04/20 05:02:35;;;;;;;0.20;0.20;;;;;;;2.60;57.99;103379.59;5109013;27;20048;-71
2023/04/20 05:05:02;;;;;;;0.13;0.10;;;;;;;2.68;57.81;103378.34;5109690;27;20491;-71
2023/04/20 05:07:30;;;;;;;0.47;0.20;;;;;;;2.77;58.62;103376.25;5109276;27;20067;-71
2023/04/20 05:09:57;;;;;;;0.75;0.20;;;;;;;2.86;58.10;103370.72;5109206;27;20050;-70
2023/04/20 05:12:24;;;;;;;0.52;0.20;;;;;;;2.95;57.71;103373.78;5114245;27;20040;-71
2023/04/20 05:14:51;;;;;;;0.38;0.20;;;;;;;3.03;58.19;103382.84;5111115;27;20443;-70
2023/04/20 05:17:19;;;;;;;0.40;0.20;;;;;;;3.03;58.32;103362.19;5107194;28;20055;-71
2023/04/20 05:19:46;;;;;;;1.55;0.20;;;;;;;3.21;57.96;103372.59;5109669;27;20052;-70
2023/04/20 05:22:13;;;;;;;0.30;0.20;;;;;;;3.31;57.58;103374.88;5106576;27;20046;-71
2023/04/20 05:24:41;;;;;;;0.50;0.20;;;;;;;3.41;57.54;103370.19;5107812;28;20062;-70
2023/04/20 05:27:10;;;;;;;1.75;0.20;;;;;;;3.49;57.85;103367.19;5103190;27;20445;-71
2023/04/20 05:29:37;;;;;;;0.55;0.28;;;;;;;3.58;57.48;103374.53;5108349;27;20051;-71
2023/04/20 05:32:04;;;;;;;0.15;0.10;;;;;;;3.68;56.97;103371.66;5112168;27;20039;-72
2023/04/20 05:34:31;;;;;;;1.65;0.45;;;;;;;3.76;57.44;103369.47;5107708;28;20040;-71
2023/04/20 05:36:59;;;;;;;0.28;0.13;;;;;;;3.85;57.13;103357.00;5110996;27;20047;-71
2023/04/20 05:39:26;;;;;;;0.10;0.10;;;;;;;3.96;57.17;103362.72;5110485;27;20079;-72
2023/04/20 05:41:54;;;;;;;1.38;0.20;;;;;;;4.02;56.93;103355.25;5105706;27;20039;-72
2023/04/20 05:44:21;;;;;;;0.93;0.20;;;;;;;4.11;56.69;103357.41;5107925;27;20051;-72
2023/04/20 05:46:49;;;;;;;0.30;0.10;;;;;;;4.16;56.07;103351.66;5109441;27;20040;-72
2023/04/20 05:49:16;;;;;;;7.78;0.13;;;;;;;4.25;56.23;103358.97;5108130;27;20043;-71
2023/04/20 05:51:42;;;;;;;1.95;0.20;;;;;;;4.31;56.10;103348.91;5107209;27;20786;-72
2023/04/20 05:54:09;;;;;;;0.20;0.20;;;;;;;4.40;55.92;103356.25;5107700;28;20768;-72
2023/04/20 05:56:36;;;;;;;0.20;0.17;;;;;;;4.47;56.50;103355.75;5107083;27;20158;-71
2023/04/20 05:59:05;;;;;;;2.50;0.10;;;;;;;4.54;55.30;103349.16;5109950;27;20050;-72
2023/04/20 06:01:32;;;;;;;3.92;0.10;;;;;;;4.61;55.65;103348.59;5109222;27;20047;-72
2023/04/20 06:03:59;;;;;;;7.03;0.20;;;;;;;4.67;55.50;103347.22;5108735;27;20043;-72
2023/04/20 06:06:26;;;;;;;0.10;0.10;;;;;;;4.74;55.70;103346.66;5107080;27;20047;-72
2023/04/20 06:08:53;;;;;;;0.30;0.10;;;;;;;4.82;55.59;103359.09;5107162;27;20424;-72
2023/04/20 06:11:20;;;;;;;2.22;0.10;;;;;;;4.90;55.61;103352.56;5110066;27;20051;-71
2023/04/20 06:13:47;;;;;;;0.70;0.20;;;;;;;5.00;55.07;103346.09;5104214;27;20054;-72
2023/04/20 06:16:16;;;;;;;2.78;0.20;;;;;;;5.07;55.38;103346.47;5107623;28;20044;-71
2023/04/20 06:18:42;;;;;;;1.58;0.10;;;;;;;5.14;55.37;103342.44;5109992;27;20051;-72
2023/04/20 06:21:10;;;;;;;0.55;0.10;;;;;;;5.22;54.78;103353.16;5109305;27;20047;-72
2023/04/20 06:23:37;;;;;;;0.95;0.10;;;;;;;5.30;54.95;103351.78;5108777;28;20052;-71
2023/04/20 06:26:07;;;;;;;0.20;0.10;;;;;;;5.38;54.55;103360.81;5108324;27;20043;-71
2023/04/20 06:28:34;;;;;;;3.58;0.10;;;;;;;5.45;54.35;103359.34;5107232;28;20135;-70
2023/04/20 06:31:01;;;;;;;0.43;0.15;;;;;;;5.51;54.33;103350.13;5109665;27;20123;-71
2023/04/20 06:33:29;;;;;;;1.27;0.20;;;;;;;5.58;54.08;103348.72;5108981;27;20043;-72
2023/04/20 06:35:57;;;;;;;0.20;0.10;;;;;;;5.67;54.07;103353.41;5108689;27;20385;-73
2023/04/20 06:38:24;;;;;;;0.30;0.15;;;;;;;5.73;53.76;103345.88;5105638;28;20040;-73
2023/04/20 06:40:51;;;;;;;1.25;0.20;;;;;;;5.82;53.82;103348.88;5110817;27;20059;-72
2023/04/20 06:43:18;;;;;;;0.40;0.10;;;;;;;5.90;53.60;103351.78;5107970;27;20043;-72
2023/04/20 06:45:44;;;;;;;0.70;0.20;;;;;;;5.95;53.66;103358.97;5111530;27;20055;-74
2023/04/20 06:48:11;;;;;;;0.13;0.10;;;;;;;6.04;53.36;103356.75;5106806;27;20050;-74
2023/04/20 06:50:40;;;;;;;0.30;0.10;;;;;;;6.13;53.55;103347.59;5107245;28;20050;-73
2023/04/20 06:53:06;;;;;;;0.15;0.10;;;;;;;6.22;53.15;103351.44;5106751;27;20069;-71
2023/04/20 06:55:33;;;;;;;0.10;0.10;;;;;;;6.30;53.22;103351.75;5110535;27;20070;-72
2023/04/20 06:58:00;;;;;;;0.30;0.10;;;;;;;6.42;52.95;103346.16;5109237;27;20046;-72
2023/04/20 07:00:27;;;;;;;0.10;0.10;;;;;;;6.51;53.03;103344.81;5108151;27;20488;-71
2023/04/20 07:02:54;;;;;;;2.75;0.10;;;;;;;6.62;52.23;103346.94;5107435;28;20082;-70
2023/04/20 07:05:21;;;;;;;0.10;0.10;;;;;;;6.75;52.39;103355.28;5106875;28;20043;-72
2023/04/20 07:07:50;;;;;;;1.73;0.17;;;;;;;6.89;51.71;103342.84;5106622;28;20051;-72
2023/04/20 07:10:17;;;;;;;0.32;0.10;;;;;;;7.01;52.08;103342.41;5107467;27;20047;-69
2023/04/20 07:12:44;;;;;;;1.55;0.10;;;;;;;7.19;51.69;103350.88;5109038;27;20039;-70
2023/04/20 07:15:12;;;;;;;0.40;0.10;;;;;;;7.35;51.73;103346.25;5105585;28;21385;-69
2023/04/20 07:17:39;;;;;;;0.13;0.10;;;;;;;7.49;51.40;103350.22;5109276;27;20047;-70
2023/04/20 07:20:07;;;;;;;0.20;0.10;;;;;;;7.63;51.29;103342.91;5110770;27;20403;-70
2023/04/20 07:22:35;;;;;;;0.52;0.10;;;;;;;7.79;51.04;103339.97;5110607;27;20039;-70
2023/04/20 07:25:04;;;;;;;0.90;0.20;;;;;;;7.95;51.28;103343.13;5108116;27;20054;-70
2023/04/20 07:27:35;;;;;;;0.20;0.10;;;;;;;8.10;50.83;103339.28;5106947;28;20073;-70
2023/04/20 07:30:02;;;;;;;3.00;0.10;;;;;;;8.25;50.58;103351.03;5109350;28;20047;-70
2023/04/20 07:32:29;;;;;;;0.30;0.10;;;;;;;8.37;50.71;103343.63;5109719;27;20046;-72
2023/04/20 07:34:56;;;;;;;8.63;0.17;;;;;;;8.50;50.16;103338.00;5105618;28;20052;-71
2023/04/20 07:37:23;;;;;;;1.85;0.10;;;;;;;8.65;49.66;103337.59;5105521;28;20072;-71
2023/04/20 07:39:51;;;;;;;1.75;0.10;;;;;;;8.76;48.89;103317.06;5108867;28;20050;-71
2023/04/20 07:42:20;;;;;;;2.00;0.10;;;;;;;8.97;48.68;103328.13;5106923;28;20040;-73
2023/04/20 07:44:47;;;;;;;2.63;0.10;;;;;;;9.14;48.28;103331.22;5107346;28;20051;-72
2023/04/20 07:47:13;;;;;;;2.65;0.13;;;;;;;9.30;47.98;103332.53;5108824;28;20148;-71
2023/04/20 07:49:41;;;;;;;0.10;0.10;;;;;;;9.51;47.74;103332.25;5106559;28;20492;-70
2023/04/20 07:52:08;;;;;;;0.20;0.10;;;;;;;9.72;47.59;103326.69;5108648;28;20048;-71
2023/04/20 07:54:35;;;;;;;0.77;0.10;;;;;;;9.97;46.79;103322.97;5106878;28;20052;-71
2023/04/20 07:57:02;;;;;;;1.20;0.10;;;;;;;10.19;46.15;103311.34;5109688;28;20052;-71
2023/04/20 07:59:31;;;;;;;1.02;0.10;;;;;;;10.52;46.44;103324.31;5106217;28;20453;-71
2023/04/20 08:02:02;;;;;;;0.20;0.20;;;;;;;10.78;46.01;103316.16;5107744;28;20044;-70
2023/04/20 08:04:29;;;;;;;3.20;0.00;;;;;;;11.02;45.64;103332.38;5108493;28;21003;-71
2023/04/20 08:06:56;;;;;;;0.38;0.10;;;;;;;11.24;45.07;103328.47;5105452;28;20071;-70
2023/04/20 08:09:24;;;;;;;0.20;0.10;;;;;;;11.46;44.57;103324.50;5106299;28;20044;-70
2023/04/20 08:11:51;;;;;;;1.55;0.10;;;;;;;11.67;43.93;103318.78;5106631;28;20067;-71
2023/04/20 08:14:17;;;;;;;1.38;0.13;;;;;;;11.86;44.00;103321.75;5106576;28;20435;-71
2023/04/20 08:16:46;;;;;;;1.77;0.10;;;;;;;12.04;42.97;103318.53;5106425;28;20067;-71
2023/04/20 08:19:13;;;;;;;0.22;0.10;;;;;;;12.20;42.31;103314.44;5110050;28;20050;-72
2023/04/20 08:21:41;;;;;;;1.48;0.10;;;;;;;12.34;41.87;103308.53;5108494;28;20113;-72
2023/04/20 08:24:09;;;;;;;0.20;0.10;;;;;;;12.47;41.18;103311.38;5107894;28;20048;-71
2023/04/20 08:26:36;;;;;;;1.23;0.10;;;;;;;12.58;40.82;103313.28;5107265;28;20459;-72
2023/04/20 08:29:04;;;;;;;0.20;0.10;;;;;;;12.67;40.61;103312.50;5106579;28;20043;-71
2023/04/20 08:31:31;;;;;;;0.15;0.10;;;;;;;12.75;40.46;103310.88;5105830;28;20044;-70
2023/04/20 08:34:00;;;;;;;0.70;0.10;;;;;;;12.82;40.45;103314.44;5106136;28;20054;-71
2023/04/20 08:36:27;;;;;;;0.20;0.20;;;;;;;12.90;39.69;103309.31;5106520;28;20040;-72
2023/04/20 08:38:57;;;;;;;1.00;0.10;;;;;;;12.97;39.51;103319.00;5103935;28;20476;-73
2023/04/20 08:41:25;;;;;;;0.98;0.10;;;;;;;13.01;38.85;103320.81;5102824;28;20060;-72
2023/04/20 08:43:52;;;;;;;1.98;0.10;;;;;;;13.05;38.90;103318.22;5105116;28;20044;-73
2023/04/20 08:46:19;;;;;;;1.08;0.17;;;;;;;13.09;38.50;103319.16;5105817;28;20052;-73
2023/04/20 08:48:48;;;;;;;0.15;0.03;;;;;;;13.13;38.36;103312.22;5108494;28;20415;-73
2023/04/20 08:51:17;;;;;;;0.15;0.10;;;;;;;13.16;38.20;103307.88;5106030;27;20445;-73
2023/04/20 08:53:44;;;;;;;0.10;0.00;;;;;;;13.18;38.01;103308.78;5108975;27;20047;-75
2023/04/20 08:56:11;;;;;;;0.35;0.08;;;;;;;13.22;37.68;103307.94;5113151;27;20050;-71
2023/04/20 08:58:41;;;;;;;0.10;0.10;;;;;;;13.25;37.92;103307.09;5111076;27;20044;-71
2023/04/20 09:01:08;;;;;;;0.15;0.10;;;;;;;13.28;37.16;103305.41;5110153;27;20044;-71
2023/04/20 09:03:37;;;;;;;0.15;0.10;;;;;;;13.30;37.41;103300.19;5108301;27;20048;-71
2023/04/20 09:06:05;;;;;;;0.20;0.10;;;;;;;13.33;37.43;103305.47;5110341;27;20078;-72
2023/04/20 09:08:37;;;;;;;0.80;0.47;;;;;;;13.36;37.12;103302.00;5107962;27;20047;-72
2023/04/20 09:11:05;;;;;;;0.13;0.10;;;;;;;13.38;37.36;103297.66;5110998;27;21486;-72
2023/04/20 09:13:32;;;;;;;0.30;0.10;;;;;;;13.40;37.08;103301.13;5107652;28;20043;-72
2023/04/20 09:16:09;;;;;;;0.30;0.10;;;;;;;13.43;37.13;103303.78;5110852;27;20492;-71
2023/04/20 09:18:36;;;;;;;1.98;0.10;;;;;;;13.46;36.83;103293.31;5110542;27;20051;-71
2023/04/20 09:21:08;;;;;;;0.10;0.10;;;;;;;13.48;36.55;103288.97;5110576;27;20063;-73
2023/04/20 09:23:36;;;;;;;0.10;0.05;;;;;;;13.53;36.80;103291.66;5106803;27;20052;-72
2023/04/20 09:26:04;;;;;;;0.20;0.10;;;;;;;13.56;36.53;103282.06;5106071;27;20044;-73
2023/04/20 09:28:37;;;;;;;1.00;0.10;;;;;;;13.60;36.24;103283.81;5109788;28;20042;-72
2023/04/20 09:31:04;;;;;;;0.85;0.10;;;;;;;13.64;36.22;103284.75;5109646;27;20058;-71
2023/04/20 09:33:31;;;;;;;0.38;0.32;;;;;;;13.68;36.31;103282.16;5111601;27;20036;-71
2023/04/20 09:36:03;;;;;;;1.70;0.10;;;;;;;13.73;36.12;103275.19;5110405;28;20726;-70
2023/04/20 09:38:31;;;;;;;0.22;0.10;;;;;;;13.79;35.33;103278.75;5108464;27;20058;-72
2023/04/20 09:41:00;;;;;;;1.20;0.10;;;;;;;13.82;35.25;103274.38;5108423;27;20411;-73
2023/04/20 09:43:29;;;;;;;1.67;0.10;;;;;;;13.85;34.11;103274.41;5112424;27;20048;-74
2023/04/20 09:45:56;;;;;;;0.20;0.10;;;;;;;13.87;33.84;103277.06;5110264;27;20052;-73
2023/04/20 09:48:23;;;;;;;0.80;0.10;;;;;;;13.88;33.66;103270.94;5113261;27;20043;-73
2023/04/20 09:50:50;;;;;;;0.77;0.10;;;;;;;13.90;33.05;103266.56;5107514;28;20086;-72
2023/04/20 09:53:17;;;;;;;0.05;0.05;;;;;;;13.92;34.10;103267.47;5113354;27;20463;-72
2023/04/20 09:55:47;;;;;;;0.47;0.10;;;;;;;13.96;33.20;103266.63;5106982;28;20058;-72
2023/04/20 09:58:18;;;;;;;1.05;0.10;;;;;;;14.00;33.47;103262.25;5107635;27;20097;-72
2023/04/20 10:00:45;;;;;;;1.02;0.10;;;;;;;14.04;32.67;103269.31;5108921;27;20047;-72
2023/04/20 10:03:16;;;;;;;2.10;0.10;;;;;;;14.06;32.43;103265.81;5108714;27;20040;-74
2023/04/20 10:05:42;;;;;;;0.10;0.10;;;;;;;14.08;32.77;103266.69;5106562;27;20047;-72
2023/04/20 10:08:10;;;;;;;0.57;0.10;;;;;;;14.09;32.45;103260.59;5108011;27;20059;-73
2023/04/20 10:10:45;;;;;;;1.15;0.10;;;;;;;14.11;31.40;103252.69;5107536;28;20774;-73
2023/04/20 10:13:12;;;;;;;0.10;0.03;;;;;;;14.03;31.05;103244.78;5107135;27;20074;-73
2023/04/20 10:15:42;;;;;;;0.08;0.08;;;;;;;14.05;31.45;103256.16;5107362;27;20490;-72
2023/04/20 10:18:18;;;;;;;0.55;0.10;;;;;;;14.06;31.29;103247.44;5106611;27;20059;-72
2023/04/20 10:20:46;;;;;;;0.93;0.15;;;;;;;14.09;31.29;103251.81;5110359;27;20039;-72
2023/04/20 10:23:14;;;;;;;1.10;0.10;;;;;;;14.09;30.90;103234.31;5109493;27;20811;-73
2023/04/20 10:25:44;;;;;;;0.10;0.10;;;;;;;14.08;30.75;103235.16;5113335;27;20847;-72
2023/04/20 10:28:11;;;;;;;0.68;0.10;;;;;;;14.10;30.57;103233.41;5107563;27;20047;-71
2023/04/20 10:30:49;;;;;;;0.20;0.10;;;;;;;14.08;30.52;103229.03;5111166;27;20724;-71
2023/04/20 10:33:17;;;;;;;0.73;0.10;;;;;;;14.09;30.54;103231.69;5104484;28;20128;-70
2023/04/20 10:35:48;;;;;;;0.10;0.10;;;;;;;14.11;30.65;103226.41;5109772;27;20096;-70
2023/04/20 10:38:15;;;;;;;0.20;0.10;;;;;;;14.08;30.45;103222.00;5106710;28;20047;-71
2023/04/20 10:40:42;;;;;;;1.75;0.20;;;;;;;14.12;30.11;103226.44;5107043;27;20051;-74
2023/04/20 10:43:20;;;;;;;1.65;0.10;;;;;;;14.14;30.34;103223.78;5106649;28;20506;-74
2023/04/20 10:45:49;;;;;;;0.10;0.10;;;;;;;14.16;30.70;103222.06;5104948;27;20516;-73
2023/04/20 10:48:16;;;;;;;1.55;0.10;;;;;;;14.17;30.38;103219.47;5106925;28;20040;-74
2023/04/20 10:50:43;;;;;;;0.65;0.13;;;;;;;14.19;30.05;103216.81;5107515;27;20044;-73
2023/04/20 10:53:19;;;;;;;0.30;0.10;;;;;;;14.19;30.24;103214.19;5099869;27;20040;-74
2023/04/20 10:55:46;;;;;;;0.65;0.10;;;;;;;14.19;30.44;103208.94;5108328;28;20047;-73
2023/04/20 10:58:22;;;;;;;0.52;0.10;;;;;;;14.18;29.93;103200.19;5110401;27;20059;-73
2023/04/20 11:00:59;;;;;;;0.08;0.08;;;;;;;14.23;30.27;103204.56;5105909;27;20047;-73
2023/04/20 11:03:27;;;;;;;0.20;0.10;;;;;;;14.25;29.92;103203.72;5109515;27;20045;-73
2023/04/20 11:05:56;;;;;;;0.30;0.10;;;;;;;14.25;29.68;103203.72;5106230;27;20050;-73
2023/04/20 11:08:23;;;;;;;0.95;0.10;;;;;;;14.26;29.29;103197.59;5108477;27;20088;-73
2023/04/20 11:10:50;;;;;;;2.13;0.10;;;;;;;14.28;29.85;103189.69;5103104;28;20717;-73
2023/04/20 11:13:21;;;;;;;0.45;0.45;;;;;;;14.30;29.84;103193.22;5107748;28;20423;-73
2023/04/20 11:15:48;;;;;;;0.10;0.10;;;;;;;14.31;29.52;103192.34;5106182;27;20059;-71
2023/04/20 11:18:17;;;;;;;0.28;0.10;;;;;;;14.33;29.10;103185.34;5106477;28;20050;-72
2023/04/20 11:20:51;;;;;;;0.30;0.10;;;;;;;14.33;29.04;103177.47;5108112;27;20050;-74
2023/04/20 11:23:20;;;;;;;0.88;0.10;;;;;;;14.34;28.97;103179.22;5108336;27;20047;-72
2023/04/20 11:25:52;;;;;;;0.38;0.10;;;;;;;14.34;28.86;103173.94;5106280;28;20096;-73
2023/04/20 11:28:19;;;;;;;0.08;0.00;;;;;;;14.35;28.75;103170.47;5108206;28;20495;-73
2023/04/20 11:30:46;;;;;;;0.13;0.05;;;;;;;14.35;28.37;103170.47;5106182;27;20510;-74
2023/04/20 11:33:13;;;;;;;6.45;0.98;;;;;;;14.35;28.67;103166.06;5107145;27;20050;-72